»·PEaware :: ASA189 KPDX-KBOI

ASA189 :: KPDX-KBOI

FLIGHT INFORMATION

Flight Status: Arrived
Operator:
Alaska Airlines
More flights by this operator :: More flights under this callsign
Pilot: Patricio R. (14780)
Aircraft: AIRBUS A320
(A320)
More flights by this aircraft type
Origin: KPDX Portland Intl
United States
Destination: KBOI Boise Air Terminal/Gowen
United States
More flights between these airports :: More routes between these airports
Route: WHAMY4 IMB HOSTS PARMO3
File this flight plan on PilotEdge
Remarks: PBN / A1B1C1D1O1S1 DOF / 180824 REG / FFA320 EET / KZLC0028 OPR / ASA PER / C RMK / TCAS SIMBRIEF
Altitude:
(Current/Filed)
31,000ft
Speed:
(Current/Filed)
441kts
Departed: 23-Aug-18 06:40 PM
Arrived: 23-Aug-18 07:37 PM
Distance/Time
Traveled:
298nm/0:57
Distance/Time
To Go:
Arrived

Flight Plot

Page will automatically refresh every two minutes.

Flight plan parsing failed; only flown route is shown


Map Options




Map Legend


Flown Route
Filed Route
Departure Airport
Arrival Airport
Navaid (VOR, NDB)
Fix

Horizontal Profiles

Position Reports

Time Latitude Longitude Heading Altitude Ground
Speed
23-Aug-18 18:16 45.587980 -122.595395 23 38ft 0kts
23-Aug-18 18:17 45.587980 -122.595395 23 38ft 0kts
23-Aug-18 18:18 45.587980 -122.595395 23 38ft 0kts
23-Aug-18 18:19 45.587980 -122.595395 23 38ft 0kts
23-Aug-18 18:20 45.587980 -122.595395 23 38ft 0kts
23-Aug-18 18:21 45.587980 -122.595395 23 38ft 0kts
23-Aug-18 18:22 45.587980 -122.595395 23 38ft 0kts
23-Aug-18 18:23 45.587980 -122.595395 23 38ft 0kts
23-Aug-18 18:24 45.587980 -122.595395 23 38ft 0kts
23-Aug-18 18:25 45.587980 -122.595395 23 38ft 0kts
23-Aug-18 18:26 45.587980 -122.595395 23 38ft 0kts
23-Aug-18 18:27 45.587980 -122.595395 23 38ft 0kts
23-Aug-18 18:28 45.587980 -122.595395 23 38ft 0kts
23-Aug-18 18:29 45.587980 -122.595395 23 38ft 0kts
23-Aug-18 18:30 45.587980 -122.595395 23 38ft 0kts
23-Aug-18 18:31 45.587980 -122.595395 23 38ft 0kts
23-Aug-18 18:32 45.587980 -122.595395 23 38ft 0kts
23-Aug-18 18:33 45.587980 -122.595395 23 38ft 0kts
23-Aug-18 18:34 45.587669 -122.595587 22 38ft 2kts
23-Aug-18 18:35 45.587352 -122.596103 115 38ft 0kts
23-Aug-18 18:36 45.587389 -122.596193 118 38ft 0kts
23-Aug-18 18:37 45.587389 -122.596192 118 38ft 0kts
23-Aug-18 18:38 45.587162 -122.595604 118 38ft 16kts
23-Aug-18 18:39 45.584138 -122.589960 124 38ft 19kts
23-Aug-18 18:40 45.581844 -122.584137 118 38ft 9kts
23-Aug-18 18:41 45.582218 -122.588256 298 38ft 84kts
23-Aug-18 18:42 45.606311 -122.645428 300 2673ft 203kts
23-Aug-18 18:43 45.639983 -122.725827 298 6063ft 260kts
23-Aug-18 18:44 45.671260 -122.820746 268 9860ft 275kts
23-Aug-18 18:45 45.637079 -122.914512 209 13609ft 291kts
23-Aug-18 18:46 45.550707 -122.892285 146 15483ft 374kts
23-Aug-18 18:47 45.499022 -122.757800 117 18010ft 403kts
23-Aug-18 18:48 45.453905 -122.611218 118 20291ft 417kts
23-Aug-18 18:49 45.406452 -122.459419 118 22332ft 430kts
23-Aug-18 18:50 45.357084 -122.301922 119 24193ft 442kts
23-Aug-18 18:51 45.306224 -122.141598 120 25834ft 453kts
23-Aug-18 18:52 45.254031 -121.976460 117 27357ft 465kts
23-Aug-18 18:53 45.209049 -121.801881 116 28706ft 477kts
23-Aug-18 18:54 45.163131 -121.623649 116 29880ft 488kts
23-Aug-18 18:55 45.118158 -121.450175 116 31030ft 485kts
23-Aug-18 18:56 45.072009 -121.273654 116 31046ft 484kts
23-Aug-18 18:57 45.025132 -121.095715 116 31046ft 485kts
23-Aug-18 18:58 44.978810 -120.921157 116 31045ft 484kts
23-Aug-18 18:59 44.931822 -120.745401 116 31044ft 485kts
23-Aug-18 19:00 44.884220 -120.568661 115 31045ft 486kts
23-Aug-18 19:01 44.836254 -120.391868 115 31070ft 486kts
23-Aug-18 19:02 44.788004 -120.215315 116 31066ft 486kts
23-Aug-18 19:03 44.739459 -120.038989 116 31060ft 485kts
23-Aug-18 19:04 44.690564 -119.862675 116 31018ft 485kts
23-Aug-18 19:05 44.641214 -119.686315 116 31026ft 485kts
23-Aug-18 19:06 44.589962 -119.511093 116 31029ft 485kts
23-Aug-18 19:07 44.538694 -119.336663 117 31028ft 485kts
23-Aug-18 19:08 44.487336 -119.162994 116 31026ft 484kts
23-Aug-18 19:09 44.435580 -118.989219 116 31022ft 484kts
23-Aug-18 19:10 44.383681 -118.816137 116 31025ft 484kts
23-Aug-18 19:11 44.331240 -118.642441 116 31025ft 485kts
23-Aug-18 19:12 44.278880 -118.470117 116 30757ft 477kts
23-Aug-18 19:13 44.228871 -118.306534 117 28692ft 463kts
23-Aug-18 19:14 44.179337 -118.145630 117 26595ft 447kts
23-Aug-18 19:15 44.131048 -117.989755 117 24501ft 433kts
23-Aug-18 19:16 44.083143 -117.836108 117 23420ft 428kts
23-Aug-18 19:17 44.036146 -117.686200 116 22454ft 421kts
23-Aug-18 19:18 43.989529 -117.538365 116 21482ft 414kts
23-Aug-18 19:19 43.943598 -117.393265 116 20510ft 407kts
23-Aug-18 19:20 43.898643 -117.251983 117 19530ft 398kts
23-Aug-18 19:21 43.854529 -117.114082 116 17811ft 394kts
23-Aug-18 19:22 43.809341 -116.973976 116 14907ft 397kts
23-Aug-18 19:23 43.765600 -116.839290 116 13406ft 362kts
23-Aug-18 19:24 43.727467 -116.720386 116 12300ft 320kts
23-Aug-18 19:25 43.692049 -116.610248 115 9505ft 309kts
23-Aug-18 19:26 43.657916 -116.504074 115 7209ft 299kts
23-Aug-18 19:27 43.617368 -116.413475 158 6192ft 268kts
23-Aug-18 19:28 43.560239 -116.449603 256 5048ft 245kts
23-Aug-18 19:29 43.576672 -116.531761 295 5001ft 223kts
23-Aug-18 19:30 43.605719 -116.607466 320 5002ft 223kts
23-Aug-18 19:31 43.662228 -116.604672 44 5001ft 227kts
23-Aug-18 19:32 43.665181 -116.522652 114 5001ft 224kts
23-Aug-18 19:33 43.638049 -116.441087 113 4999ft 238kts
23-Aug-18 19:34 43.611267 -116.362982 113 4716ft 201kts
23-Aug-18 19:35 43.591858 -116.306345 114 3838ft 144kts
23-Aug-18 19:36 43.574846 -116.256792 114 3067ft 141kts
23-Aug-18 19:37 43.562622 -116.220869 117 2857ft 41kts
23-Aug-18 19:38 43.562888 -116.217000 355 2861ft 17kts
23-Aug-18 19:39 43.566229 -116.218798 2 2858ft 8kts

Navigation Log

Ident Type
Flight plan parsing failed, navigation log unavailable